sensor_id;sensor_type;location;lat;lon;timestamp;pressure;altitude;pressure_sealevel;temperature;humidity
9738;BME280;4908;47.446;13.900;2023-11-19T00:00:30;93142.88;;;0.71;100.00
9738;BME280;4908;47.446;13.900;2023-11-19T00:02:57;93135.44;;;0.73;100.00
9738;BME280;4908;47.446;13.900;2023-11-19T00:05:24;93121.94;;;0.74;100.00
9738;BME280;4908;47.446;13.900;2023-11-19T00:07:51;93114.63;;;0.80;100.00
9738;BME280;4908;47.446;13.900;2023-11-19T00:10:19;93110.31;;;0.75;100.00
9738;BME280;4908;47.446;13.900;2023-11-19T00:12:48;93100.84;;;0.74;100.00
9738;BME280;4908;47.446;13.900;2023-11-19T00:15:16;93098.22;;;0.74;100.00
9738;BME280;4908;47.446;13.900;2023-11-19T00:17:46;93089.38;;;0.70;100.00
9738;BME280;4908;47.446;13.900;2023-11-19T00:20:15;93086.13;;;0.73;100.00
9738;BME280;4908;47.446;13.900;2023-11-19T00:22:42;93083.00;;;0.80;100.00
9738;BME280;4908;47.446;13.900;2023-11-19T00:25:10;93073.72;;;0.82;100.00
9738;BME280;4908;47.446;13.900;2023-11-19T00:27:37;93066.59;;;0.83;100.00
9738;BME280;4908;47.446;13.900;2023-11-19T00:30:05;93070.63;;;0.80;100.00
9738;BME280;4908;47.446;13.900;2023-11-19T00:32:32;93054.78;;;0.89;100.00
9738;BME280;4908;47.446;13.900;2023-11-19T00:35:00;93059.00;;;0.81;100.00
9738;BME280;4908;47.446;13.900;2023-11-19T00:37:28;93062.41;;;0.73;100.00
9738;BME280;4908;47.446;13.900;2023-11-19T00:39:55;93053.13;;;0.67;100.00
9738;BME280;4908;47.446;13.900;2023-11-19T00:42:23;93037.28;;;0.84;100.00
9738;BME280;4908;47.446;13.900;2023-11-19T00:44:51;93057.09;;;0.90;100.00
9738;BME280;4908;47.446;13.900;2023-11-19T00:47:18;93031.25;;;0.75;100.00
9738;BME280;4908;47.446;13.900;2023-11-19T00:49:46;93029.88;;;0.69;100.00
9738;BME280;4908;47.446;13.900;2023-11-19T00:52:17;93027.06;;;0.74;100.00
9738;BME280;4908;47.446;13.900;2023-11-19T00:54:44;93023.81;;;0.69;100.00
9738;BME280;4908;47.446;13.900;2023-11-19T00:57:11;93027.69;;;0.71;100.00
9738;BME280;4908;47.446;13.900;2023-11-19T00:59:38;93026.13;;;0.70;100.00
9738;BME280;4908;47.446;13.900;2023-11-19T01:02:07;93026.28;;;0.74;100.00
9738;BME280;4908;47.446;13.900;2023-11-19T01:04:35;93025.34;;;0.78;100.00
9738;BME280;4908;47.446;13.900;2023-11-19T01:07:02;93020.53;;;0.72;100.00
9738;BME280;4908;47.446;13.900;2023-11-19T01:09:32;93014.69;;;0.66;100.00
9738;BME280;4908;47.446;13.900;2023-11-19T01:12:01;93023.38;;;0.58;100.00
9738;BME280;4908;47.446;13.900;2023-11-19T01:14:28;93009.91;;;0.60;100.00
9738;BME280;4908;47.446;13.900;2023-11-19T01:16:56;93004.47;;;0.65;100.00
9738;BME280;4908;47.446;13.900;2023-11-19T01:19:23;93006.44;;;0.76;100.00
9738;BME280;4908;47.446;13.900;2023-11-19T01:21:50;93007.53;;;0.75;100.00
9738;BME280;4908;47.446;13.900;2023-11-19T01:24:17;93011.25;;;0.74;100.00
9738;BME280;4908;47.446;13.900;2023-11-19T01:26:46;92985.81;;;0.78;100.00
9738;BME280;4908;47.446;13.900;2023-11-19T01:29:13;93004.72;;;0.80;100.00
9738;BME280;4908;47.446;13.900;2023-11-19T01:31:40;92982.09;;;0.79;100.00
9738;BME280;4908;47.446;13.900;2023-11-19T01:34:07;92978.22;;;0.77;100.00
9738;BME280;4908;47.446;13.900;2023-11-19T01:36:35;92979.94;;;0.81;100.00
9738;BME280;4908;47.446;13.900;2023-11-19T01:39:01;92968.44;;;0.86;100.00
9738;BME280;4908;47.446;13.900;2023-11-19T01:41:34;92971.84;;;0.86;100.00
9738;BME280;4908;47.446;13.900;2023-11-19T01:44:03;92967.94;;;0.93;100.00
9738;BME280;4908;47.446;13.900;2023-11-19T01:46:30;92965.03;;;0.85;100.00
9738;BME280;4908;47.446;13.900;2023-11-19T01:48:59;92963.03;;;0.74;100.00
9738;BME280;4908;47.446;13.900;2023-11-19T01:51:27;92955.59;;;0.76;100.00
9738;BME280;4908;47.446;13.900;2023-11-19T01:53:55;92959.19;;;0.71;100.00
9738;BME280;4908;47.446;13.900;2023-11-19T01:56:23;92946.75;;;0.72;100.00
9738;BME280;4908;47.446;13.900;2023-11-19T01:58:51;92960.53;;;0.86;100.00
9738;BME280;4908;47.446;13.900;2023-11-19T02:01:21;92949.38;;;0.80;100.00
9738;BME280;4908;47.446;13.900;2023-11-19T02:03:48;92955.75;;;0.79;100.00
9738;BME280;4908;47.446;13.900;2023-11-19T02:06:16;92948.31;;;0.81;100.00
9738;BME280;4908;47.446;13.900;2023-11-19T02:08:43;92962.41;;;0.85;100.00
9738;BME280;4908;47.446;13.900;2023-11-19T02:11:10;92941.94;;;0.82;100.00
9738;BME280;4908;47.446;13.900;2023-11-19T02:13:38;92936.78;;;0.95;100.00
9738;BME280;4908;47.446;13.900;2023-11-19T02:16:07;92949.09;;;1.11;100.00
9738;BME280;4908;47.446;13.900;2023-11-19T02:18:36;92933.69;;;0.93;100.00
9738;BME280;4908;47.446;13.900;2023-11-19T02:21:04;92939.03;;;0.75;100.00
9738;BME280;4908;47.446;13.900;2023-11-19T02:23:32;92935.03;;;0.69;100.00
9738;BME280;4908;47.446;13.900;2023-11-19T02:26:03;92927.84;;;0.78;100.00
9738;BME280;4908;47.446;13.900;2023-11-19T02:28:35;92918.47;;;0.89;100.00
9738;BME280;4908;47.446;13.900;2023-11-19T02:31:03;92927.22;;;0.81;100.00
9738;BME280;4908;47.446;13.900;2023-11-19T02:33:35;92903.72;;;0.68;100.00
9738;BME280;4908;47.446;13.900;2023-11-19T02:36:03;92925.69;;;0.72;100.00
9738;BME280;4908;47.446;13.900;2023-11-19T02:38:30;92918.41;;;0.77;100.00
9738;BME280;4908;47.446;13.900;2023-11-19T02:40:57;92920.59;;;0.75;100.00
9738;BME280;4908;47.446;13.900;2023-11-19T02:43:24;92920.22;;;0.85;100.00
9738;BME280;4908;47.446;13.900;2023-11-19T02:45:53;92910.97;;;0.79;100.00
9738;BME280;4908;47.446;13.900;2023-11-19T02:48:21;92909.22;;;0.83;100.00
9738;BME280;4908;47.446;13.900;2023-11-19T02:50:48;92901.03;;;0.76;100.00
9738;BME280;4908;47.446;13.900;2023-11-19T02:53:15;92889.41;;;0.77;100.00
9738;BME280;4908;47.446;13.900;2023-11-19T02:55:43;92883.22;;;0.73;100.00
9738;BME280;4908;47.446;13.900;2023-11-19T02:58:15;92882.13;;;0.74;100.00
9738;BME280;4908;47.446;13.900;2023-11-19T03:00:49;92884.31;;;0.72;100.00
9738;BME280;4908;47.446;13.900;2023-11-19T03:03:24;92877.97;;;0.73;100.00
9738;BME280;4908;47.446;13.900;2023-11-19T03:05:56;92871.13;;;0.72;100.00
9738;BME280;4908;47.446;13.900;2023-11-19T03:08:24;92881.06;;;0.75;100.00
9738;BME280;4908;47.446;13.900;2023-11-19T03:10:51;92866.78;;;0.76;100.00
9738;BME280;4908;47.446;13.900;2023-11-19T03:13:19;92880.38;;;0.87;100.00
9738;BME280;4908;47.446;13.900;2023-11-19T03:15:47;92868.16;;;1.03;100.00
9738;BME280;4908;47.446;13.900;2023-11-19T03:18:14;92869.97;;;0.90;100.00
9738;BME280;4908;47.446;13.900;2023-11-19T03:20:43;92866.41;;;0.86;100.00
9738;BME280;4908;47.446;13.900;2023-11-19T03:23:10;92867.88;;;0.75;100.00
9738;BME280;4908;47.446;13.900;2023-11-19T03:25:38;92867.22;;;0.78;100.00
9738;BME280;4908;47.446;13.900;2023-11-19T03:28:05;92853.72;;;0.80;100.00
9738;BME280;4908;47.446;13.900;2023-11-19T03:30:32;92864.72;;;0.82;100.00
9738;BME280;4908;47.446;13.900;2023-11-19T03:32:59;92853.13;;;0.74;100.00
9738;BME280;4908;47.446;13.900;2023-11-19T03:35:27;92865.25;;;0.75;100.00
9738;BME280;4908;47.446;13.900;2023-11-19T03:37:56;92862.41;;;0.80;100.00
9738;BME280;4908;47.446;13.900;2023-11-19T03:40:23;92869.09;;;0.78;100.00
9738;BME280;4908;47.446;13.900;2023-11-19T03:42:50;92843.97;;;0.80;100.00
9738;BME280;4908;47.446;13.900;2023-11-19T03:45:17;92862.69;;;0.87;100.00
9738;BME280;4908;47.446;13.900;2023-11-19T03:47:45;92844.41;;;0.82;100.00
9738;BME280;4908;47.446;13.900;2023-11-19T03:50:12;92859.31;;;0.78;100.00
9738;BME280;4908;47.446;13.900;2023-11-19T03:52:41;92861.28;;;0.90;100.00
9738;BME280;4908;47.446;13.900;2023-11-19T03:55:10;92856.66;;;0.87;100.00
9738;BME280;4908;47.446;13.900;2023-11-19T03:57:38;92854.97;;;0.82;100.00
9738;BME280;4908;47.446;13.900;2023-11-19T04:00:06;92848.63;;;0.83;100.00
9738;BME280;4908;47.446;13.900;2023-11-19T04:02:35;92842.09;;;0.81;100.00
9738;BME280;4908;47.446;13.900;2023-11-19T04:05:02;92844.31;;;1.00;100.00
9738;BME280;4908;47.446;13.900;2023-11-19T04:07:30;92831.34;;;0.95;100.00
9738;BME280;4908;47.446;13.900;2023-11-19T04:09:58;92834.91;;;0.90;100.00
9738;BME280;4908;47.446;13.900;2023-11-19T04:12:27;92822.06;;;0.88;100.00
9738;BME280;4908;47.446;13.900;2023-11-19T04:14:54;92825.41;;;0.98;100.00
9738;BME280;4908;47.446;13.900;2023-11-19T04:17:21;92809.97;;;0.87;100.00
9738;BME280;4908;47.446;13.900;2023-11-19T04:19:49;92793.53;;;0.90;100.00
9738;BME280;4908;47.446;13.900;2023-11-19T04:22:17;92796.41;;;0.98;100.00
9738;BME280;4908;47.446;13.900;2023-11-19T04:24:44;92802.88;;;1.09;100.00
9738;BME280;4908;47.446;13.900;2023-11-19T04:27:11;92792.25;;;0.97;100.00
9738;BME280;4908;47.446;13.900;2023-11-19T04:29:40;92800.53;;;0.86;100.00
9738;BME280;4908;47.446;13.900;2023-11-19T04:32:07;92790.22;;;0.93;100.00
9738;BME280;4908;47.446;13.900;2023-11-19T04:34:34;92798.34;;;0.88;100.00
9738;BME280;4908;47.446;13.900;2023-11-19T04:37:03;92801.63;;;0.85;100.00
9738;BME280;4908;47.446;13.900;2023-11-19T04:39:30;92785.41;;;0.75;100.00
9738;BME280;4908;47.446;13.900;2023-11-19T04:41:58;92776.69;;;0.83;100.00
9738;BME280;4908;47.446;13.900;2023-11-19T04:44:25;92777.06;;;0.93;100.00
9738;BME280;4908;47.446;13.900;2023-11-19T04:46:53;92794.16;;;0.87;100.00
9738;BME280;4908;47.446;13.900;2023-11-19T04:49:21;92776.56;;;0.79;100.00
9738;BME280;4908;47.446;13.900;2023-11-19T04:51:48;92787.34;;;0.86;100.00
9738;BME280;4908;47.446;13.900;2023-11-19T04:54:16;92780.53;;;0.85;100.00
9738;BME280;4908;47.446;13.900;2023-11-19T04:56:45;92792.88;;;0.93;100.00
9738;BME280;4908;47.446;13.900;2023-11-19T04:59:13;92780.03;;;0.92;100.00
9738;BME280;4908;47.446;13.900;2023-11-19T05:01:40;92796.03;;;0.87;100.00
9738;BME280;4908;47.446;13.900;2023-11-19T05:04:09;92786.44;;;0.82;100.00
9738;BME280;4908;47.446;13.900;2023-11-19T05:06:36;92807.66;;;0.86;100.00
9738;BME280;4908;47.446;13.900;2023-11-19T05:09:03;92785.53;;;0.78;100.00
9738;BME280;4908;47.446;13.900;2023-11-19T05:11:33;92795.91;;;0.83;100.00
9738;BME280;4908;47.446;13.900;2023-11-19T05:14:02;92784.25;;;0.84;100.00
9738;BME280;4908;47.446;13.900;2023-11-19T05:16:31;92790.81;;;0.78;100.00
9738;BME280;4908;47.446;13.900;2023-11-19T05:18:58;92796.53;;;0.80;100.00
9738;BME280;4908;47.446;13.900;2023-11-19T05:21:27;92783.88;;;0.95;100.00
9738;BME280;4908;47.446;13.900;2023-11-19T05:23:54;92789.34;;;0.89;100.00
9738;BME280;4908;47.446;13.900;2023-11-19T05:26:23;92795.34;;;0.99;100.00
9738;BME280;4908;47.446;13.900;2023-11-19T05:28:51;92792.50;;;1.04;100.00
9738;BME280;4908;47.446;13.900;2023-11-19T05:31:18;92784.97;;;0.93;100.00
9738;BME280;4908;47.446;13.900;2023-11-19T05:33:45;92790.31;;;1.06;100.00
9738;BME280;4908;47.446;13.900;2023-11-19T05:36:12;92785.41;;;0.96;100.00
9738;BME280;4908;47.446;13.900;2023-11-19T05:38:40;92789.16;;;0.95;100.00
9738;BME280;4908;47.446;13.900;2023-11-19T05:41:07;92785.16;;;0.88;100.00
9738;BME280;4908;47.446;13.900;2023-11-19T05:43:34;92781.94;;;0.83;100.00
9738;BME280;4908;47.446;13.900;2023-11-19T05:46:01;92785.16;;;0.88;100.00
9738;BME280;4908;47.446;13.900;2023-11-19T05:48:28;92780.34;;;0.90;100.00
9738;BME280;4908;47.446;13.900;2023-11-19T05:50:55;92770.75;;;0.86;100.00
9738;BME280;4908;47.446;13.900;2023-11-19T05:53:22;92776.16;;;0.89;100.00
9738;BME280;4908;47.446;13.900;2023-11-19T05:55:51;92776.81;;;0.86;100.00
9738;BME280;4908;47.446;13.900;2023-11-19T05:58:23;92768.91;;;0.86;100.00
9738;BME280;4908;47.446;13.900;2023-11-19T06:00:51;92774.63;;;0.88;100.00
9738;BME280;4908;47.446;13.900;2023-11-19T06:03:18;92770.38;;;0.75;100.00
9738;BME280;4908;47.446;13.900;2023-11-19T06:05:47;92776.56;;;0.79;100.00
9738;BME280;4908;47.446;13.900;2023-11-19T06:08:14;92777.47;;;0.83;100.00
9738;BME280;4908;47.446;13.900;2023-11-19T06:10:41;92776.03;;;0.86;100.00
9738;BME280;4908;47.446;13.900;2023-11-19T06:13:10;92782.97;;;0.90;100.00
9738;BME280;4908;47.446;13.900;2023-11-19T06:15:37;92779.91;;;0.88;100.00
9738;BME280;4908;47.446;13.900;2023-11-19T06:18:04;92788.00;;;0.83;100.00
9738;BME280;4908;47.446;13.900;2023-11-19T06:20:32;92775.06;;;0.90;100.00
9738;BME280;4908;47.446;13.900;2023-11-19T06:22:59;92791.34;;;0.93;100.00
9738;BME280;4908;47.446;13.900;2023-11-19T06:25:27;92783.75;;;0.91;100.00
9738;BME280;4908;47.446;13.900;2023-11-19T06:27:54;92783.44;;;0.93;100.00
9738;BME280;4908;47.446;13.900;2023-11-19T06:30:23;92787.88;;;1.01;100.00
9738;BME280;4908;47.446;13.900;2023-11-19T06:32:51;92804.59;;;1.05;100.00
9738;BME280;4908;47.446;13.900;2023-11-19T06:35:18;92795.72;;;1.09;100.00
9738;BME280;4908;47.446;13.900;2023-11-19T06:37:45;92795.34;;;0.99;100.00
9738;BME280;4908;47.446;13.900;2023-11-19T06:40:12;92789.81;;;1.12;100.00
9738;BME280;4908;47.446;13.900;2023-11-19T06:42:41;92788.38;;;1.15;100.00
9738;BME280;4908;47.446;13.900;2023-11-19T06:45:08;92797.31;;;1.02;100.00
9738;BME280;4908;47.446;13.900;2023-11-19T06:47:37;92775.31;;;0.98;100.00
9738;BME280;4908;47.446;13.900;2023-11-19T06:50:05;92772.06;;;1.01;100.00
9738;BME280;4908;47.446;13.900;2023-11-19T06:52:32;92765.22;;;1.00;100.00
9738;BME280;4908;47.446;13.900;2023-11-19T06:54:59;92796.53;;;1.01;100.00
9738;BME280;4908;47.446;13.900;2023-11-19T06:57:26;92778.34;;;1.08;100.00
9738;BME280;4908;47.446;13.900;2023-11-19T06:59:55;92777.78;;;1.03;100.00
9738;BME280;4908;47.446;13.900;2023-11-19T07:02:22;92774.38;;;1.02;100.00
9738;BME280;4908;47.446;13.900;2023-11-19T07:04:50;92771.66;;;0.90;100.00
9738;BME280;4908;47.446;13.900;2023-11-19T07:07:17;92777.59;;;0.87;100.00
9738;BME280;4908;47.446;13.900;2023-11-19T07:09:45;92793.81;;;0.68;100.00
9738;BME280;4908;47.446;13.900;2023-11-19T07:12:13;92781.16;;;0.62;100.00
9738;BME280;4908;47.446;13.900;2023-11-19T07:14:41;92803.63;;;0.59;100.00
9738;BME280;4908;47.446;13.900;2023-11-19T07:17:08;92802.00;;;0.75;100.00
9738;BME280;4908;47.446;13.900;2023-11-19T07:19:35;92802.00;;;0.75;100.00
9738;BME280;4908;47.446;13.900;2023-11-19T07:22:05;92794.16;;;0.87;100.00
9738;BME280;4908;47.446;13.900;2023-11-19T07:24:33;92800.19;;;0.88;100.00
9738;BME280;4908;47.446;13.900;2023-11-19T07:27:00;92807.16;;;0.93;100.00
9738;BME280;4908;47.446;13.900;2023-11-19T07:29:29;92810.50;;;1.02;100.00
9738;BME280;4908;47.446;13.900;2023-11-19T07:31:57;92814.03;;;1.06;100.00
9738;BME280;4908;47.446;13.900;2023-11-19T07:34:24;92815.41;;;1.12;100.00
9738;BME280;4908;47.446;13.900;2023-11-19T07:36:51;92818.81;;;1.33;100.00
9738;BME280;4908;47.446;13.900;2023-11-19T07:39:19;92832.06;;;1.24;100.00
9738;BME280;4908;47.446;13.900;2023-11-19T07:41:47;92825.94;;;1.12;100.00
9738;BME280;4908;47.446;13.900;2023-11-19T07:44:14;92823.88;;;1.17;100.00
9738;BME280;4908;47.446;13.900;2023-11-19T07:46:42;92831.47;;;1.19;100.00
9738;BME280;4908;47.446;13.900;2023-11-19T07:49:10;92829.72;;;1.23;100.00
9738;BME280;4908;47.446;13.900;2023-11-19T07:51:38;92835.72;;;1.32;100.00
9738;BME280;4908;47.446;13.900;2023-11-19T07:54:05;92842.00;;;1.60;100.00
9738;BME280;4908;47.446;13.900;2023-11-19T07:56:33;92848.56;;;1.54;100.00
9738;BME280;4908;47.446;13.900;2023-11-19T07:59:01;92841.38;;;1.42;100.00
9738;BME280;4908;47.446;13.900;2023-11-19T08:01:28;92856.69;;;1.49;100.00
9738;BME280;4908;47.446;13.900;2023-11-19T08:03:55;92862.22;;;1.56;100.00
9738;BME280;4908;47.446;13.900;2023-11-19T08:06:22;92852.94;;;1.50;100.00
9738;BME280;4908;47.446;13.900;2023-11-19T08:08:49;92852.91;;;1.38;100.00
9738;BME280;4908;47.446;13.900;2023-11-19T08:11:17;92845.03;;;1.50;100.00
9738;BME280;4908;47.446;13.900;2023-11-19T08:13:46;92835.34;;;1.42;100.00
9738;BME280;4908;47.446;13.900;2023-11-19T08:16:13;92830.81;;;1.42;100.00
9738;BME280;4908;47.446;13.900;2023-11-19T08:18:42;92834.69;;;1.45;100.00
9738;BME280;4908;47.446;13.900;2023-11-19T08:21:10;92851.41;;;1.49;100.00
9738;BME280;4908;47.446;13.900;2023-11-19T08:23:37;92847.56;;;1.67;100.00
9738;BME280;4908;47.446;13.900;2023-11-19T08:26:05;92830.41;;;1.73;100.00
9738;BME280;4908;47.446;13.900;2023-11-19T08:28:32;92828.63;;;1.65;100.00
9738;BME280;4908;47.446;13.900;2023-11-19T08:31:01;92829.84;;;1.67;100.00
9738;BME280;4908;47.446;13.900;2023-11-19T08:33:29;92821.25;;;1.38;100.00
9738;BME280;4908;47.446;13.900;2023-11-19T08:35:56;92824.59;;;1.47;100.00
9738;BME280;4908;47.446;13.900;2023-11-19T08:38:24;92824.66;;;1.59;100.00
9738;BME280;4908;47.446;13.900;2023-11-19T08:40:51;92815.09;;;1.66;100.00
9738;BME280;4908;47.446;13.900;2023-11-19T08:43:18;92812.81;;;1.65;100.00
9738;BME280;4908;47.446;13.900;2023-11-19T08:45:46;92818.91;;;1.57;100.00
9738;BME280;4908;47.446;13.900;2023-11-19T08:48:14;92816.97;;;1.66;100.00
9738;BME280;4908;47.446;13.900;2023-11-19T08:50:41;92810.84;;;1.74;100.00
9738;BME280;4908;47.446;13.900;2023-11-19T08:53:08;92816.81;;;1.83;100.00
9738;BME280;4908;47.446;13.900;2023-11-19T08:55:36;92818.03;;;1.86;100.00
9738;BME280;4908;47.446;13.900;2023-11-19T08:58:03;92819.22;;;1.76;100.00
9738;BME280;4908;47.446;13.900;2023-11-19T09:00:30;92806.34;;;1.87;100.00
9738;BME280;4908;47.446;13.900;2023-11-19T09:02:58;92819.09;;;1.72;100.00
9738;BME280;4908;47.446;13.900;2023-11-19T09:05:26;92813.81;;;1.72;100.00
9738;BME280;4908;47.446;13.900;2023-11-19T09:07:53;92812.41;;;1.87;100.00
9738;BME280;4908;47.446;13.900;2023-11-19T09:10:20;92815.50;;;1.89;100.00
9738;BME280;4908;47.446;13.900;2023-11-19T09:12:47;92813.88;;;1.97;100.00
9738;BME280;4908;47.446;13.900;2023-11-19T09:15:14;92825.88;;;1.94;100.00
9738;BME280;4908;47.446;13.900;2023-11-19T09:17:42;92824.56;;;2.00;100.00
9738;BME280;4908;47.446;13.900;2023-11-19T09:20:10;92827.00;;;2.05;100.00
9738;BME280;4908;47.446;13.900;2023-11-19T09:22:42;92825.88;;;2.06;100.00
9738;BME280;4908;47.446;13.900;2023-11-19T09:25:09;92829.72;;;1.97;100.00
9738;BME280;4908;47.446;13.900;2023-11-19T09:27:36;92820.59;;;1.94;100.00
9738;BME280;4908;47.446;13.900;2023-11-19T09:30:04;92832.69;;;1.95;100.00
9738;BME280;4908;47.446;13.900;2023-11-19T09:32:31;92824.56;;;2.00;100.00
9738;BME280;4908;47.446;13.900;2023-11-19T09:34:58;92820.94;;;2.05;100.00
9738;BME280;4908;47.446;13.900;2023-11-19T09:37:26;92829.63;;;2.05;100.00
9738;BME280;4908;47.446;13.900;2023-11-19T09:39:54;92821.25;;;2.03;100.00
9738;BME280;4908;47.446;13.900;2023-11-19T09:42:23;92818.53;;;2.12;100.00
9738;BME280;4908;47.446;13.900;2023-11-19T09:44:51;92807.84;;;1.96;100.00
9738;BME280;4908;47.446;13.900;2023-11-19T09:47:19;92800.22;;;1.95;100.00
9738;BME280;4908;47.446;13.900;2023-11-19T09:49:47;92804.75;;;1.94;100.00
9738;BME280;4908;47.446;13.900;2023-11-19T09:52:15;92805.38;;;1.91;100.00
9738;BME280;4908;47.446;13.900;2023-11-19T09:54:42;92801.22;;;2.02;100.00
9738;BME280;4908;47.446;13.900;2023-11-19T09:57:11;92795.53;;;2.12;100.00
9738;BME280;4908;47.446;13.900;2023-11-19T09:59:41;92778.03;;;2.20;100.00
9738;BME280;4908;47.446;13.900;2023-11-19T10:02:09;92781.56;;;2.24;100.00
9738;BME280;4908;47.446;13.900;2023-11-19T10:04:37;92775.97;;;2.37;100.00
9738;BME280;4908;47.446;13.900;2023-11-19T10:07:05;92773.13;;;2.42;100.00
9738;BME280;4908;47.446;13.900;2023-11-19T10:09:32;92765.28;;;2.58;100.00
9738;BME280;4908;47.446;13.900;2023-11-19T10:11:59;92763.19;;;2.51;100.00
9738;BME280;4908;47.446;13.900;2023-11-19T10:14:30;92772.56;;;2.61;100.00
9738;BME280;4908;47.446;13.900;2023-11-19T10:17:00;92758.44;;;2.45;100.00
9738;BME280;4908;47.446;13.900;2023-11-19T10:19:29;92763.41;;;2.58;100.00
9738;BME280;4908;47.446;13.900;2023-11-19T10:22:03;92764.72;;;2.64;100.00
9738;BME280;4908;47.446;13.900;2023-11-19T10:24:31;92746.22;;;2.77;100.00
9738;BME280;4908;47.446;13.900;2023-11-19T10:26:59;92758.19;;;2.86;100.00
9738;BME280;4908;47.446;13.900;2023-11-19T10:29:30;92754.47;;;2.87;100.00
9738;BME280;4908;47.446;13.900;2023-11-19T10:31:58;92761.53;;;2.83;100.00
9738;BME280;4908;47.446;13.900;2023-11-19T10:34:26;92759.50;;;2.92;100.00
9738;BME280;4908;47.446;13.900;2023-11-19T10:36:53;92739.66;;;3.10;100.00
9738;BME280;4908;47.446;13.900;2023-11-19T10:39:20;92745.38;;;3.12;100.00
9738;BME280;4908;47.446;13.900;2023-11-19T10:41:49;92737.34;;;3.09;100.00
9738;BME280;4908;47.446;13.900;2023-11-19T10:47:12;92722.34;;;3.13;100.00
9738;BME280;4908;47.446;13.900;2023-11-19T10:49:40;92732.63;;;3.30;100.00
9738;BME280;4908;47.446;13.900;2023-11-19T10:52:08;92737.50;;;3.28;100.00
9738;BME280;4908;47.446;13.900;2023-11-19T10:54:37;92726.66;;;3.33;100.00
9738;BME280;4908;47.446;13.900;2023-11-19T10:57:09;92731.34;;;3.51;100.00
9738;BME280;4908;47.446;13.900;2023-11-19T10:59:39;92730.56;;;3.51;100.00
9738;BME280;4908;47.446;13.900;2023-11-19T11:02:11;92735.56;;;3.68;100.00
9738;BME280;4908;47.446;13.900;2023-11-19T11:04:42;92712.00;;;3.63;100.00
9738;BME280;4908;47.446;13.900;2023-11-19T11:07:12;92713.44;;;3.76;100.00
9738;BME280;4908;47.446;13.900;2023-11-19T11:09:41;92716.63;;;3.82;100.00
9738;BME280;4908;47.446;13.900;2023-11-19T11:12:09;92701.41;;;3.79;100.00
9738;BME280;4908;47.446;13.900;2023-11-19T11:14:38;92718.06;;;3.79;100.00
9738;BME280;4908;47.446;13.900;2023-11-19T11:17:08;92704.41;;;3.93;100.00
9738;BME280;4908;47.446;13.900;2023-11-19T11:19:38;92701.16;;;3.99;100.00
9738;BME280;4908;47.446;13.900;2023-11-19T11:22:06;92709.69;;;3.93;100.00
9738;BME280;4908;47.446;13.900;2023-11-19T11:24:56;92707.81;;;3.93;100.00
9738;BME280;4908;47.446;13.900;2023-11-19T11:27:41;92692.53;;;4.02;100.00
9738;BME280;4908;47.446;13.900;2023-11-19T11:30:20;92709.03;;;3.96;100.00
9738;BME280;4908;47.446;13.900;2023-11-19T11:32:56;92707.31;;;4.03;100.00
9738;BME280;4908;47.446;13.900;2023-11-19T11:35:32;92711.69;;;4.11;100.00
9738;BME280;4908;47.446;13.900;2023-11-19T11:38:07;92715.19;;;4.31;100.00
9738;BME280;4908;47.446;13.900;2023-11-19T11:40:35;92720.22;;;4.36;100.00
9738;BME280;4908;47.446;13.900;2023-11-19T11:43:02;92708.09;;;4.35;100.00
9738;BME280;4908;47.446;13.900;2023-11-19T11:45:37;92696.00;;;4.37;100.00
9738;BME280;4908;47.446;13.900;2023-11-19T11:48:12;92694.81;;;4.50;100.00
9738;BME280;4908;47.446;13.900;2023-11-19T11:50:50;92700.97;;;4.54;100.00
9738;BME280;4908;47.446;13.900;2023-11-19T11:53:18;92700.06;;;5.01;100.00
9738;BME280;4908;47.446;13.900;2023-11-19T11:55:55;92709.97;;;4.85;100.00
9738;BME280;4908;47.446;13.900;2023-11-19T11:58:35;92699.66;;;4.99;100.00
9738;BME280;4908;47.446;13.900;2023-11-19T12:01:05;92701.72;;;4.90;100.00
9738;BME280;4908;47.446;13.900;2023-11-19T12:03:37;92686.09;;;5.04;100.00
9738;BME280;4908;47.446;13.900;2023-11-19T12:06:06;92686.41;;;5.18;100.00
9738;BME280;4908;47.446;13.900;2023-11-19T12:08:34;92681.22;;;5.25;100.00
9738;BME280;4908;47.446;13.900;2023-11-19T12:11:02;92682.28;;;5.39;100.00
9738;BME280;4908;47.446;13.900;2023-11-19T12:13:53;92671.84;;;5.50;100.00
9738;BME280;4908;47.446;13.900;2023-11-19T12:16:23;92666.34;;;5.39;100.00
9738;BME280;4908;47.446;13.900;2023-11-19T12:18:53;92674.91;;;5.52;100.00
9738;BME280;4908;47.446;13.900;2023-11-19T12:21:29;92670.69;;;5.70;100.00
9738;BME280;4908;47.446;13.900;2023-11-19T12:23:58;92674.06;;;5.67;100.00
9738;BME280;4908;47.446;13.900;2023-11-19T12:26:34;92675.94;;;5.67;100.00
9738;BME280;4908;47.446;13.900;2023-11-19T12:29:01;92683.44;;;5.61;100.00
9738;BME280;4908;47.446;13.900;2023-11-19T12:31:32;92671.97;;;5.57;100.00
9738;BME280;4908;47.446;13.900;2023-11-19T12:34:08;92684.38;;;5.72;100.00
9738;BME280;4908;47.446;13.900;2023-11-19T12:36:39;92679.84;;;5.73;100.00
9738;BME280;4908;47.446;13.900;2023-11-19T12:39:08;92678.34;;;5.75;100.00
9738;BME280;4908;47.446;13.900;2023-11-19T12:41:52;92668.44;;;5.72;100.00
9738;BME280;4908;47.446;13.900;2023-11-19T12:44:20;92663.66;;;5.59;100.00
9738;BME280;4908;47.446;13.900;2023-11-19T12:46:59;92654.94;;;5.81;100.00
9738;BME280;4908;47.446;13.900;2023-11-19T12:49:26;92657.25;;;5.82;100.00
9738;BME280;4908;47.446;13.900;2023-11-19T12:51:55;92661.72;;;5.78;100.00
9738;BME280;4908;47.446;13.900;2023-11-19T12:54:32;92647.81;;;6.07;100.00
9738;BME280;4908;47.446;13.900;2023-11-19T12:56:59;92661.53;;;6.09;100.00
9738;BME280;4908;47.446;13.900;2023-11-19T12:59:26;92658.19;;;6.16;100.00
9738;BME280;4908;47.446;13.900;2023-11-19T13:01:54;92659.16;;;6.04;100.00
9738;BME280;4908;47.446;13.900;2023-11-19T13:04:22;92652.50;;;6.14;100.00
9738;BME280;4908;47.446;13.900;2023-11-19T13:06:50;92658.06;;;6.31;100.00
9738;BME280;4908;47.446;13.900;2023-11-19T13:09:24;92660.44;;;6.37;100.00
9738;BME280;4908;47.446;13.900;2023-11-19T13:11:52;92676.91;;;6.46;100.00
9738;BME280;4908;47.446;13.900;2023-11-19T13:14:20;92654.47;;;6.43;100.00
9738;BME280;4908;47.446;13.900;2023-11-19T13:16:47;92661.22;;;6.37;100.00
9738;BME280;4908;47.446;13.900;2023-11-19T13:19:14;92646.63;;;6.54;100.00